Time;durP1;ratioP1;P1;durP2;ratioP2;P2;SDS_P1;SDS_P2;PMS_P1;PMS_P2;Temp;Humidity;BMP_temperature;BMP_pressure;BME280_temperature;BME280_humidity;BME280_pressure;Samples;Min_cycle;Max_cycle;Signal;HPM_P1;HPM_P2
2023/05/27 00:00:52;;;;;;;6.90;3.30;;;;;;;11.39;51.86;101369.98;221217;1238;60443;-72
2023/05/27 00:05:44;;;;;;;8.70;3.00;;;;;;;11.28;51.89;101369.68;221211;1235;60517;-72
2023/05/27 00:10:35;;;;;;;9.80;3.30;;;;;;;11.13;52.18;101374.70;221241;1236;60555;-72
2023/05/27 00:15:27;;;;;;;8.30;3.00;;;;;;;11.06;52.51;101380.94;221190;1239;72840;-72
2023/05/27 00:20:19;;;;;;;13.30;4.90;;;;;;;10.98;52.64;101385.95;221240;1239;60562;-72
2023/05/27 00:25:12;;;;;;;7.50;3.10;;;;;;;10.94;52.92;101381.48;221287;1239;60501;-72
2023/05/27 00:30:04;;;;;;;7.40;3.30;;;;;;;10.84;53.47;101387.14;221207;1239;60495;-72
2023/05/27 00:34:55;;;;;;;7.60;2.90;;;;;;;10.77;53.49;101388.15;221250;1239;60527;-72
2023/05/27 00:39:47;;;;;;;9.10;3.70;;;;;;;10.69;53.70;101385.86;220958;1237;65836;-72
2023/05/27 00:44:39;;;;;;;8.40;3.80;;;;;;;10.65;53.86;101382.66;221163;1236;61119;-72
2023/05/27 00:49:31;;;;;;;7.40;2.70;;;;;;;10.62;54.26;101380.30;221219;1239;60492;-73
2023/05/27 00:54:23;;;;;;;8.30;3.40;;;;;;;10.50;54.41;101377.21;221178;1239;60779;-71
2023/05/27 00:59:15;;;;;;;8.20;2.90;;;;;;;10.35;54.48;101377.46;220867;1239;60472;-72
2023/05/27 01:04:12;;;;;;;7.00;2.80;;;;;;;10.20;54.79;101378.05;220852;1236;71551;-72
2023/05/27 01:09:13;;;;;;;10.50;3.50;;;;;;;10.08;55.19;101376.67;221035;1239;60447;-72
2023/05/27 01:14:10;;;;;;;6.90;3.10;;;;;;;10.05;55.15;101380.55;221052;1239;66975;-72
2023/05/27 01:19:09;;;;;;;8.70;3.30;;;;;;;9.96;55.53;101385.11;221112;1235;60399;-72
2023/05/27 01:24:04;;;;;;;7.70;2.90;;;;;;;9.88;55.73;101389.05;221021;1237;73780;-73
2023/05/27 01:28:57;;;;;;;5.90;3.00;;;;;;;9.83;55.90;101392.89;221064;1239;72459;-72
2023/05/27 01:34:09;;;;;;;10.00;2.90;;;;;;;9.75;56.01;101392.29;221022;1236;60439;-72
2023/05/27 01:39:02;;;;;;;7.90;3.60;;;;;;;9.64;56.29;101392.64;220880;1239;67239;-71
2023/05/27 01:43:55;;;;;;;7.90;3.10;;;;;;;9.54;56.59;101383.69;221103;1238;60443;-72
2023/05/27 01:48:49;;;;;;;12.30;4.50;;;;;;;9.43;56.92;101390.58;220918;1239;60484;-72
2023/05/27 01:53:40;;;;;;;11.50;4.10;;;;;;;9.35;56.97;101394.48;221198;1235;71217;-72
2023/05/27 01:58:32;;;;;;;8.90;2.70;;;;;;;9.28;57.14;101404.13;221003;1235;60435;-72
2023/05/27 02:03:24;;;;;;;6.50;2.60;;;;;;;9.18;57.42;101406.52;221200;1239;60447;-72
2023/05/27 02:08:16;;;;;;;7.20;3.20;;;;;;;9.09;57.50;101403.83;221074;1239;60465;-72
2023/05/27 02:13:07;;;;;;;9.10;4.00;;;;;;;8.96;57.91;101412.55;220959;1239;65142;-72
2023/05/27 02:17:59;;;;;;;7.70;3.00;;;;;;;8.85;58.17;101410.98;221024;1239;60475;-72
2023/05/27 02:22:54;;;;;;;9.80;2.80;;;;;;;8.72;58.62;101413.27;220883;1239;60383;-72
2023/05/27 02:27:48;;;;;;;6.70;3.20;;;;;;;8.62;58.80;101416.54;220953;1236;60420;-72
2023/05/27 02:32:40;;;;;;;7.40;3.50;;;;;;;8.48;59.22;101422.25;220892;1236;74927;-72
2023/05/27 02:37:31;;;;;;;9.40;3.70;;;;;;;8.38;59.58;101426.00;220938;1239;60442;-72
2023/05/27 02:42:23;;;;;;;11.90;4.30;;;;;;;8.37;59.69;101430.79;221202;1235;60549;-72
2023/05/27 02:47:15;;;;;;;11.80;4.80;;;;;;;8.34;60.08;101427.40;220980;1235;72720;-72
2023/05/27 02:52:06;;;;;;;14.30;5.20;;;;;;;8.30;60.02;101428.80;220916;1239;60408;-72
2023/05/27 02:56:58;;;;;;;7.60;4.30;;;;;;;8.27;60.28;101426.81;221219;1239;60532;-72
2023/05/27 03:01:49;;;;;;;12.00;4.40;;;;;;;8.29;60.54;101433.63;221033;1237;60462;-72
2023/05/27 03:06:41;;;;;;;8.00;3.60;;;;;;;8.31;60.83;101434.02;220922;1239;60618;-72
2023/05/27 03:11:34;;;;;;;9.40;3.30;;;;;;;8.31;61.14;101439.40;221162;1235;60452;-72
2023/05/27 03:16:25;;;;;;;7.90;3.10;;;;;;;8.29;61.22;101441.70;221217;1239;60650;-72
2023/05/27 03:21:17;;;;;;;8.40;3.50;;;;;;;8.37;61.47;101441.16;221157;1239;60461;-72
2023/05/27 03:26:09;;;;;;;8.70;3.40;;;;;;;8.44;61.55;101440.57;221070;1239;60562;-72
2023/05/27 03:31:01;;;;;;;10.10;3.20;;;;;;;8.53;61.62;101448.71;221171;1235;60472;-72
2023/05/27 03:36:08;;;;;;;11.10;4.20;;;;;;;8.66;61.91;101448.46;220943;1237;72687;-72
2023/05/27 03:40:59;;;;;;;8.70;3.30;;;;;;;8.76;61.75;101443.84;221064;1238;60530;-72
2023/05/27 03:45:52;;;;;;;8.60;3.70;;;;;;;8.89;61.83;101448.60;221098;1239;60503;-72
2023/05/27 03:50:44;;;;;;;7.10;3.30;;;;;;;8.98;61.84;101457.23;221087;1239;60453;-72
2023/05/27 03:55:36;;;;;;;9.90;3.80;;;;;;;9.07;61.92;101459.63;221165;1236;60501;-72
2023/05/27 04:00:28;;;;;;;7.70;3.30;;;;;;;9.11;62.08;101470.29;221021;1237;60566;-72
2023/05/27 04:05:20;;;;;;;15.60;4.40;;;;;;;9.19;62.16;101476.31;220914;1239;61201;-72
2023/05/27 04:10:12;;;;;;;9.20;4.60;;;;;;;9.27;62.11;101482.97;220987;1235;60501;-72
2023/05/27 04:15:04;;;;;;;8.00;3.20;;;;;;;9.35;62.22;101486.71;221091;1239;60447;-72
2023/05/27 04:19:56;;;;;;;10.90;4.10;;;;;;;9.43;62.08;101490.25;221171;1239;60433;-72
2023/05/27 04:24:48;;;;;;;8.50;3.50;;;;;;;9.48;62.11;101490.95;220953;1239;60586;-72
2023/05/27 04:29:43;;;;;;;6.60;3.40;;;;;;;9.54;62.09;101493.05;221131;1239;60391;-72
2023/05/27 04:34:34;;;;;;;8.20;3.40;;;;;;;9.59;61.97;101493.03;221069;1239;60561;-72
2023/05/27 04:39:27;;;;;;;7.60;3.10;;;;;;;9.67;61.98;101488.65;220885;1236;60441;-72
2023/05/27 04:44:19;;;;;;;6.00;3.30;;;;;;;9.75;62.20;101489.08;221158;1239;61114;-72
2023/05/27 04:49:13;;;;;;;9.10;3.30;;;;;;;9.84;62.19;101496.13;221139;1235;60545;-71
2023/05/27 04:54:05;;;;;;;8.80;3.80;;;;;;;9.95;62.12;101499.77;220892;1235;60419;-72
2023/05/27 04:58:58;;;;;;;9.20;2.70;;;;;;;10.08;62.29;101503.98;221071;1239;60475;-72
2023/05/27 05:04:12;;;;;;;10.20;3.20;;;;;;;10.16;61.89;101502.31;220974;1236;60535;-72
2023/05/27 05:09:09;;;;;;;8.50;3.40;;;;;;;10.24;61.76;101499.78;220901;1240;66453;-72
2023/05/27 05:14:01;;;;;;;8.40;3.10;;;;;;;10.35;61.65;101501.38;220864;1235;60338;-72
2023/05/27 05:18:53;;;;;;;5.50;2.80;;;;;;;10.54;61.66;101500.03;221103;1236;60449;-72
2023/05/27 05:23:47;;;;;;;6.20;2.70;;;;;;;10.72;61.19;101498.81;221126;1239;60651;-72
2023/05/27 05:28:38;;;;;;;12.10;3.00;;;;;;;10.81;60.97;101494.75;220961;1237;60564;-72
2023/05/27 05:33:32;;;;;;;9.30;3.90;;;;;;;10.91;60.72;101494.87;221045;1236;60528;-72
2023/05/27 05:38:24;;;;;;;6.40;3.40;;;;;;;11.07;60.57;101495.83;221142;1240;60561;-72
2023/05/27 05:43:16;;;;;;;7.40;2.90;;;;;;;11.14;60.39;101497.05;221146;1237;60519;-72
2023/05/27 05:48:07;;;;;;;7.80;2.30;;;;;;;11.27;60.13;101499.30;221006;1235;60446;-72
2023/05/27 05:52:59;;;;;;;6.40;2.80;;;;;;;11.45;59.98;101503.95;221122;1235;60551;-72
2023/05/27 05:57:51;;;;;;;8.30;4.00;;;;;;;11.64;59.65;101502.16;221022;1240;60465;-73
2023/05/27 06:02:44;;;;;;;4.90;2.40;;;;;;;11.82;59.21;101503.65;221167;1239;60855;-72
2023/05/27 06:07:38;;;;;;;6.70;2.50;;;;;;;12.13;58.99;101506.48;220980;1236;71525;-73
2023/05/27 06:12:34;;;;;;;4.20;2.40;;;;;;;12.33;58.77;101502.09;220873;1235;60969;-72
2023/05/27 06:17:26;;;;;;;5.00;2.70;;;;;;;12.52;58.08;101511.71;221007;1235;60536;-72
2023/05/27 06:22:17;;;;;;;4.40;1.90;;;;;;;12.87;56.94;101516.95;221075;1236;60478;-72
2023/05/27 06:27:35;;;;;;;4.80;2.50;;;;;;;13.27;55.49;101524.02;220844;1235;65731;-73
2023/05/27 06:32:27;;;;;;;3.40;1.80;;;;;;;14.25;53.84;101527.21;221135;1239;60478;-73
2023/05/27 06:37:19;;;;;;;3.70;2.20;;;;;;;14.88;52.78;101525.16;220888;1240;61072;-72
2023/05/27 06:42:10;;;;;;;5.50;2.50;;;;;;;15.35;51.88;101524.45;221011;1235;60433;-72
2023/05/27 06:47:13;;;;;;;4.30;2.70;;;;;;;15.43;51.34;101529.77;220979;1235;74198;-72
2023/05/27 06:52:06;;;;;;;6.10;2.50;;;;;;;15.57;50.69;101532.35;221008;1240;60467;-72
2023/05/27 06:57:12;;;;;;;3.30;2.00;;;;;;;15.67;49.96;101534.55;220842;1235;61083;-73
2023/05/27 07:02:23;;;;;;;2.20;1.60;;;;;;;16.40;48.94;101537.73;220976;1239;65870;-72
2023/05/27 07:07:16;;;;;;;3.70;2.10;;;;;;;16.51;48.60;101540.77;221087;1235;60439;-72
2023/05/27 07:12:08;;;;;;;2.60;2.00;;;;;;;17.43;46.46;101534.98;221003;1235;60800;-73
2023/05/27 07:17:21;;;;;;;4.80;1.70;;;;;;;17.50;45.84;101538.89;220935;1235;60436;-72
2023/05/27 07:22:14;;;;;;;3.10;1.70;;;;;;;17.83;44.93;101530.49;220918;1239;60826;-72
2023/05/27 07:27:06;;;;;;;6.00;2.00;;;;;;;17.74;44.30;101528.92;220937;1235;61232;-72
2023/05/27 07:31:58;;;;;;;5.10;1.80;;;;;;;19.13;42.92;101523.91;220831;1235;60488;-72
2023/05/27 07:36:52;;;;;;;4.50;2.00;;;;;;;20.30;41.81;101518.90;220859;1235;60497;-72
2023/05/27 07:41:44;;;;;;;4.00;1.90;;;;;;;20.95;41.01;101511.73;220954;1235;60516;-72
2023/05/27 07:46:38;;;;;;;2.60;1.80;;;;;;;23.64;37.29;101510.27;220745;1235;65516;-72
2023/05/27 07:51:31;;;;;;;6.90;1.60;;;;;;;24.90;35.80;101504.55;220781;1235;60490;-73
2023/05/27 07:56:26;;;;;;;2.90;1.50;;;;;;;25.53;34.61;101500.67;221043;1235;72478;-72
2023/05/27 08:01:17;;;;;;;3.60;1.60;;;;;;;24.88;33.92;101497.58;220804;1235;60558;-72
2023/05/27 08:06:11;;;;;;;4.10;1.70;;;;;;;24.39;33.50;101494.36;220901;1240;60585;-72
2023/05/27 08:11:05;;;;;;;2.20;1.70;;;;;;;24.14;31.90;101489.92;220890;1235;66630;-73
2023/05/27 08:16:13;;;;;;;4.10;2.30;;;;;;;25.23;31.51;101488.32;220927;1239;60426;-73
2023/05/27 08:21:09;;;;;;;2.10;1.50;;;;;;;26.90;30.19;101488.33;221026;1239;72434;-73
2023/05/27 08:26:15;;;;;;;5.00;2.10;;;;;;;27.77;29.32;101487.34;220973;1237;71341;-72
2023/05/27 08:31:20;;;;;;;3.10;1.70;;;;;;;27.17;29.01;101492.60;220980;1237;60481;-72
2023/05/27 08:36:19;;;;;;;5.80;2.30;;;;;;;27.13;28.76;101482.64;220877;1235;65519;-72
2023/05/27 08:41:12;;;;;;;5.30;2.00;;;;;;;28.88;27.67;101474.64;220899;1240;60458;-73
2023/05/27 08:46:04;;;;;;;4.20;1.70;;;;;;;29.95;25.41;101470.42;220811;1235;60556;-73
2023/05/27 08:50:56;;;;;;;4.80;2.10;;;;;;;30.75;24.40;101473.70;220780;1235;60594;-73
2023/05/27 08:55:52;;;;;;;2.80;1.60;;;;;;;29.70;25.09;101473.52;220906;1235;60541;-72
2023/05/27 09:01:08;;;;;;;8.30;2.60;;;;;;;26.43;26.23;101475.45;220891;1239;73447;-72
2023/05/27 09:06:09;;;;;;;3.20;1.30;;;;;;;24.36;26.92;101477.41;220980;1235;60436;-72
2023/05/27 09:11:27;;;;;;;2.20;1.50;;;;;;;23.57;27.91;101482.70;220936;1235;66187;-72
2023/05/27 09:16:27;;;;;;;2.90;1.50;;;;;;;23.05;28.13;101478.08;221004;1235;60465;-72
2023/05/27 09:21:27;;;;;;;3.00;1.30;;;;;;;23.99;27.46;101469.23;220991;1235;60420;-72
2023/05/27 09:26:29;;;;;;;5.80;2.20;;;;;;;24.12;26.56;101466.04;220961;1239;72902;-72
2023/05/27 09:31:22;;;;;;;2.00;1.30;;;;;;;24.08;26.04;101474.66;220899;1239;60472;-72
2023/05/27 09:36:21;;;;;;;1.90;1.70;;;;;;;23.74;26.40;101469.16;221146;1235;67319;-71
2023/05/27 09:41:23;;;;;;;3.10;1.40;;;;;;;26.55;24.91;101465.55;221299;1235;60433;-71
2023/05/27 09:46:19;;;;;;;2.40;1.40;;;;;;;28.75;23.07;101467.61;220972;1234;73662;-72
2023/05/27 09:51:43;;;;;;;3.70;1.50;;;;;;;30.12;22.58;101460.45;220959;1235;73380;-72
2023/05/27 09:56:37;;;;;;;1.30;1.20;;;;;;;30.80;21.25;101468.20;220957;1235;60672;-72
2023/05/27 10:01:46;;;;;;;2.40;1.60;;;;;;;30.90;20.24;101471.80;220945;1235;66758;-73
2023/05/27 10:06:45;;;;;;;1.40;1.30;;;;;;;31.25;20.16;101469.27;220921;1235;60442;-72
2023/05/27 10:11:42;;;;;;;1.30;1.20;;;;;;;31.80;19.95;101467.46;221019;1235;72932;-72
2023/05/27 10:16:34;;;;;;;3.20;1.70;;;;;;;32.03;19.51;101470.53;220966;1235;72543;-72
2023/05/27 10:21:28;;;;;;;2.70;1.40;;;;;;;31.96;19.55;101467.02;220975;1235;60546;-72
2023/05/27 10:26:32;;;;;;;2.60;1.80;;;;;;;31.78;19.29;101467.94;220941;1239;67967;-72
2023/05/27 10:31:30;;;;;;;3.00;1.50;;;;;;;31.84;19.64;101465.05;221000;1235;60541;-74
2023/05/27 10:36:31;;;;;;;2.30;1.50;;;;;;;31.63;19.29;101467.73;220967;1235;72464;-75
2023/05/27 10:41:56;;;;;;;2.40;1.40;;;;;;;31.00;19.36;101464.44;220820;1236;72678;-74
2023/05/27 10:46:52;;;;;;;1.50;1.40;;;;;;;31.14;19.34;101458.96;220950;1235;60430;-74
2023/05/27 10:51:48;;;;;;;3.40;1.40;;;;;;;31.13;19.70;101458.49;220899;1235;66706;-74
2023/05/27 10:56:50;;;;;;;2.30;1.40;;;;;;;30.83;19.43;101465.00;221014;1235;60497;-74
2023/05/27 11:01:47;;;;;;;2.90;1.90;;;;;;;30.18;19.48;101459.75;220959;1235;73764;-74
2023/05/27 11:07:05;;;;;;;2.10;1.50;;;;;;;28.79;20.84;101466.16;220739;1239;72679;-74
2023/05/27 11:12:16;;;;;;;3.30;1.10;;;;;;;27.33;21.39;101467.07;220725;1235;60409;-74
2023/05/27 11:17:10;;;;;;;2.10;1.50;;;;;;;26.24;21.30;101462.18;220643;1239;68357;-74
2023/05/27 11:22:03;;;;;;;3.10;1.80;;;;;;;25.44;21.57;101459.09;220744;1235;60443;-74
2023/05/27 11:26:59;;;;;;;3.10;1.50;;;;;;;25.13;22.97;101462.73;220774;1239;60436;-73
2023/05/27 11:31:55;;;;;;;3.50;2.00;;;;;;;24.83;22.82;101461.38;220940;1239;71105;-74
2023/05/27 11:36:51;;;;;;;2.30;1.50;;;;;;;24.61;22.89;101463.80;221052;1239;60450;-73
2023/05/27 11:41:51;;;;;;;1.40;1.30;;;;;;;24.26;22.09;101454.52;221018;1236;67915;-74
2023/05/27 11:46:46;;;;;;;2.40;1.70;;;;;;;24.01;22.06;101454.34;221035;1235;60445;-73
2023/05/27 11:51:43;;;;;;;1.70;1.60;;;;;;;23.76;22.24;101441.89;220984;1238;73684;-74
2023/05/27 11:56:36;;;;;;;;;;;;;;;23.73;23.15;101441.25;220981;1235;72451;-74
2023/05/27 12:01:27;;;;;;;1.30;1.10;;;;;;;23.85;22.79;101436.54;221005;1235;60442;-73
2023/05/27 12:06:23;;;;;;;2.70;1.60;;;;;;;23.99;22.69;101433.68;221011;1238;65897;-73
2023/05/27 12:11:14;;;;;;;1.70;1.30;;;;;;;24.16;22.33;101425.22;220979;1239;60558;-73
2023/05/27 12:16:06;;;;;;;2.40;1.60;;;;;;;24.27;22.65;101424.38;221029;1239;60529;-73
2023/05/27 12:21:01;;;;;;;2.20;1.30;;;;;;;24.24;22.17;101424.83;220949;1238;60406;-74
2023/05/27 12:25:55;;;;;;;2.00;1.60;;;;;;;24.23;22.90;101422.56;220999;1239;73970;-73
2023/05/27 12:30:47;;;;;;;3.30;1.60;;;;;;;24.29;22.58;101411.74;220967;1235;72734;-74
2023/05/27 12:35:38;;;;;;;2.40;1.20;;;;;;;24.17;21.79;101422.53;221033;1235;60545;-73
2023/05/27 12:40:49;;;;;;;2.90;1.30;;;;;;;24.04;22.47;101420.27;220969;1235;66950;-73
2023/05/27 13:05:34;;;;;;;2.00;1.20;;;;;;;23.84;22.12;101398.67;218673;1248;61579;-74
2023/05/27 13:21:54;;;;;;;2.00;1.30;;;;;;;23.90;22.52;101368.77;219407;1244;73582;-74
2023/05/27 13:45:08;;;;;;;4.20;1.30;;;;;;;23.50;22.17;101373.36;218651;1251;60371;-73
2023/05/27 13:51:08;;;;;;;1.50;1.10;;;;;;;23.43;22.60;101364.16;218520;1249;74739;-74
2023/05/27 13:56:58;;;;;;;2.20;1.60;;;;;;;23.54;22.68;101367.04;218704;1248;71343;-74
2023/05/27 14:14:04;;;;;;;3.40;1.50;;;;;;;23.59;22.68;101354.17;218674;1245;60489;-73
2023/05/27 14:25:26;;;;;;;1.80;1.30;;;;;;;23.54;23.01;101344.60;219309;1245;71811;-74
2023/05/27 14:31:12;;;;;;;3.70;1.40;;;;;;;23.42;23.21;101349.15;219321;1245;60435;-73
2023/05/27 14:37:00;;;;;;;0.90;0.90;;;;;;;23.36;23.13;101340.11;218305;1245;66330;-74
2023/05/27 14:48:26;;;;;;;3.70;1.30;;;;;;;23.19;23.09;101332.41;219191;1247;74358;-74
2023/05/27 14:54:26;;;;;;;3.40;1.20;;;;;;;23.11;23.25;101334.57;219191;1248;71891;-73
2023/05/27 15:06:26;;;;;;;2.60;1.30;;;;;;;23.00;24.13;101329.49;219268;1247;65585;-74
2023/05/27 15:11:36;;;;;;;2.00;1.00;;;;;;;22.82;23.23;101325.17;219421;1241;61115;-74
2023/05/27 15:36:10;;;;;;;3.60;1.20;;;;;;;21.51;24.92;101310.84;221181;1235;67320;-74
2023/05/27 15:54:29;;;;;;;4.30;1.20;;;;;;;21.14;25.06;101300.92;218873;1245;74355;-74
2023/05/27 16:18:25;;;;;;;1.70;1.10;;;;;;;20.73;25.25;101295.80;216728;1254;72505;-74
2023/05/27 16:30:21;;;;;;;1.00;0.90;;;;;;;20.71;25.58;101293.88;216624;1258;62110;-74
2023/05/27 16:42:43;;;;;;;4.90;1.50;;;;;;;20.30;25.88;101289.20;216338;1257;60509;-74
2023/05/27 16:48:06;;;;;;;1.70;1.40;;;;;;;20.30;26.36;101286.36;217068;1253;75670;-74
2023/05/27 16:59:25;;;;;;;3.40;1.20;;;;;;;19.91;26.08;101289.89;219332;1244;60538;-74
2023/05/27 17:17:13;;;;;;;2.20;1.40;;;;;;;19.49;27.38;101288.94;220234;1242;74083;-75
2023/05/27 17:59:22;;;;;;;3.30;2.60;;;;;;;17.68;32.63;101311.35;216799;1254;60473;-73
2023/05/27 18:16:42;;;;;;;4.10;1.50;;;;;;;16.64;34.33;101309.64;216728;1254;75047;-73
2023/05/27 18:22:07;;;;;;;3.20;1.50;;;;;;;16.33;34.89;101310.46;217413;1247;73641;-74
2023/05/27 18:27:56;;;;;;;2.40;1.60;;;;;;;16.04;35.40;101316.13;219049;1245;61307;-74
2023/05/27 18:39:35;;;;;;;2.80;1.90;;;;;;;15.39;36.93;101321.52;220907;1239;60685;-73
2023/05/27 18:45:08;;;;;;;3.90;1.90;;;;;;;15.08;37.78;101326.88;220860;1237;74456;-74
2023/05/27 18:57:30;;;;;;;;;;;;;;;;;;;;;
2023/05/27 19:03:15;;;;;;;;;;;;;;;;;;;;;
2023/05/27 19:14:33;;;;;;;12.60;7.80;;;;;;;13.73;41.13;101351.86;220514;1237;74557;-74
2023/05/27 19:20:23;;;;;;;18.70;10.60;;;;;;;13.53;41.67;101357.33;220587;1240;73310;-74
2023/05/27 19:31:20;;;;;;;38.90;29.00;;;;;;;13.04;42.70;101362.59;221094;1240;66792;-74
2023/05/27 19:42:00;;;;;;;16.30;9.90;;;;;;;12.61;43.13;101368.95;220525;1237;72688;-74
2023/05/27 19:47:06;;;;;;;14.80;6.80;;;;;;;12.43;43.75;101372.95;220690;1240;73553;-74
2023/05/27 19:52:00;;;;;;;10.60;5.90;;;;;;;12.25;44.16;101376.23;220803;1235;60423;-74
2023/05/27 19:56:52;;;;;;;10.90;8.40;;;;;;;12.04;44.72;101379.80;220924;1235;67563;-73
2023/05/27 20:01:43;;;;;;;9.50;5.30;;;;;;;11.95;45.56;101377.70;221041;1239;60446;-74
2023/05/27 20:06:36;;;;;;;6.90;4.10;;;;;;;11.85;45.94;101375.87;220864;1239;60472;-74
2023/05/27 20:11:27;;;;;;;8.00;4.40;;;;;;;11.69;46.41;101372.58;221035;1235;60518;-74
2023/05/27 20:16:19;;;;;;;6.20;3.10;;;;;;;11.57;47.14;101369.67;221059;1236;60446;-74
2023/05/27 20:21:11;;;;;;;6.60;3.30;;;;;;;11.43;47.77;101372.15;221100;1239;60494;-74
2023/05/27 20:26:05;;;;;;;4.40;3.20;;;;;;;11.34;48.10;101367.23;221085;1236;60491;-74
2023/05/27 20:30:57;;;;;;;8.10;3.80;;;;;;;11.22;48.72;101371.09;220961;1239;72670;-74
2023/05/27 20:35:48;;;;;;;4.30;2.60;;;;;;;11.07;49.33;101372.98;221095;1238;60465;-74
2023/05/27 20:40:41;;;;;;;5.20;3.40;;;;;;;10.87;49.54;101371.42;221097;1235;60526;-73
2023/05/27 20:45:32;;;;;;;8.50;3.90;;;;;;;10.67;49.93;101372.98;221080;1239;60466;-74
2023/05/27 20:50:24;;;;;;;6.30;3.50;;;;;;;10.51;50.26;101373.77;220963;1235;60528;-74
2023/05/27 20:55:15;;;;;;;7.90;4.20;;;;;;;10.41;50.59;101378.48;221098;1235;60475;-74
2023/05/27 21:00:08;;;;;;;8.90;4.50;;;;;;;10.25;51.20;101378.55;220955;1238;66248;-74
2023/05/27 21:04:59;;;;;;;9.40;5.00;;;;;;;10.08;51.30;101381.52;220954;1239;60459;-74
2023/05/27 21:09:51;;;;;;;12.00;4.50;;;;;;;10.05;51.70;101382.79;221044;1234;60523;-73
2023/05/27 21:14:42;;;;;;;6.60;4.40;;;;;;;9.98;51.99;101380.17;221028;1239;60521;-74
2023/05/27 21:19:34;;;;;;;8.10;4.00;;;;;;;9.92;52.10;101377.93;220948;1237;74825;-74
2023/05/27 21:24:26;;;;;;;12.10;3.90;;;;;;;9.84;52.32;101378.54;220955;1239;60417;-73
2023/05/27 21:29:17;;;;;;;9.20;4.10;;;;;;;9.75;52.69;101373.08;221121;1239;61216;-73
2023/05/27 21:34:09;;;;;;;8.20;4.10;;;;;;;9.66;52.70;101372.63;221064;1238;71983;-74
2023/05/27 21:39:00;;;;;;;4.90;3.60;;;;;;;9.61;53.40;101366.93;221034;1235;60441;-73
2023/05/27 21:43:52;;;;;;;5.50;4.00;;;;;;;9.57;53.21;101372.17;221040;1236;60542;-74
2023/05/27 21:48:47;;;;;;;5.80;3.50;;;;;;;9.49;53.05;101376.77;221032;1238;60388;-73
2023/05/27 21:53:39;;;;;;;6.00;3.60;;;;;;;9.45;53.19;101378.90;221119;1235;65569;-73
2023/05/27 21:58:30;;;;;;;9.20;3.80;;;;;;;9.36;53.45;101378.09;221065;1239;60418;-73
2023/05/27 22:03:22;;;;;;;6.70;4.00;;;;;;;9.28;53.73;101375.92;220675;1239;60549;-73
2023/05/27 22:08:14;;;;;;;7.00;3.30;;;;;;;9.20;54.17;101374.08;220784;1238;60423;-74
2023/05/27 22:13:05;;;;;;;5.50;3.10;;;;;;;9.11;54.34;101375.19;220791;1236;60470;-75
2023/05/27 22:17:57;;;;;;;6.60;3.80;;;;;;;9.03;54.55;101369.73;220786;1239;60491;-74
2023/05/27 22:22:49;;;;;;;5.00;3.20;;;;;;;8.94;54.45;101372.73;220818;1239;72450;-74
2023/05/27 22:27:41;;;;;;;7.10;3.40;;;;;;;8.91;54.36;101366.73;220939;1239;60468;-74
2023/05/27 22:32:32;;;;;;;11.30;3.60;;;;;;;8.81;54.31;101364.13;220954;1239;60452;-74
2023/05/27 22:37:24;;;;;;;5.00;3.30;;;;;;;8.67;54.54;101370.05;220716;1239;135149;-73
2023/05/27 22:42:15;;;;;;;7.50;3.50;;;;;;;8.57;54.72;101367.11;220870;1239;60865;-74
2023/05/27 22:47:07;;;;;;;7.80;3.50;;;;;;;8.49;54.71;101367.34;220866;1239;60548;-73
2023/05/27 22:51:58;;;;;;;4.70;3.60;;;;;;;8.46;55.12;101366.02;220811;1239;60526;-74
2023/05/27 22:56:50;;;;;;;6.40;3.80;;;;;;;8.40;55.26;101356.29;220819;1237;60469;-74
2023/05/27 23:01:42;;;;;;;9.70;4.90;;;;;;;8.34;55.19;101350.69;220824;1239;60491;-74
2023/05/27 23:06:33;;;;;;;5.80;4.70;;;;;;;8.26;55.52;101344.55;220638;1239;65759;-74
2023/05/27 23:11:26;;;;;;;8.00;5.50;;;;;;;8.19;55.66;101348.93;220852;1239;60828;-74
2023/05/27 23:16:17;;;;;;;10.30;6.00;;;;;;;8.11;55.90;101346.73;220947;1239;60439;-74
2023/05/27 23:21:09;;;;;;;8.40;4.80;;;;;;;8.01;56.05;101343.45;220732;1239;60538;-73
2023/05/27 23:26:01;;;;;;;7.70;4.40;;;;;;;7.95;56.11;101343.06;220682;1239;72499;-73
2023/05/27 23:30:53;;;;;;;8.90;4.40;;;;;;;7.88;56.18;101347.10;220612;1235;61149;-73
2023/05/27 23:35:44;;;;;;;8.00;4.80;;;;;;;7.85;56.55;101345.43;220697;1239;60503;-73
2023/05/27 23:40:36;;;;;;;7.40;4.70;;;;;;;7.83;56.93;101346.05;220666;1240;71688;-74
2023/05/27 23:45:28;;;;;;;8.70;5.00;;;;;;;7.75;56.91;101347.83;220766;1239;60418;-73
2023/05/27 23:50:21;;;;;;;7.50;5.10;;;;;;;7.70;57.38;101342.96;220856;1237;60440;-73
2023/05/27 23:55:13;;;;;;;7.10;5.00;;;;;;;7.67;57.76;101336.30;220790;1237;60471;-73
